Time;durP1;ratioP1;P1;durP2;ratioP2;P2;SDS_P1;SDS_P2;PMS_P1;PMS_P2;Temp;Humidity;BMP_temperature;BMP_pressure;BME280_temperature;BME280_humidity;BME280_pressure;Samples;Min_cycle;Max_cycle;Signal;HPM_P1;HPM_P2
2021/04/04 00:02:14;;;;;;;4.90;3.50;;;5.00;99.90;;;;;;5111707;28;20175;-68
2021/04/04 00:04:40;;;;;;;7.10;5.00;;;5.00;99.90;;;;;;5111766;28;20760;-68
2021/04/04 00:07:05;;;;;;;9.77;5.43;;;5.10;99.90;;;;;;5111705;28;20413;-67
2021/04/04 00:09:31;;;;;;;6.40;4.50;;;5.10;99.90;;;;;;5111270;28;20191;-68
2021/04/04 00:11:56;;;;;;;7.33;5.63;;;5.10;99.90;;;;;;5111634;28;20664;-67
2021/04/04 00:14:22;;;;;;;7.07;6.07;;;5.00;99.90;;;;;;5111538;28;20203;-66
2021/04/04 00:16:47;;;;;;;7.93;4.40;;;5.00;99.90;;;;;;5111776;28;20271;-67
2021/04/04 00:19:13;;;;;;;6.20;5.60;;;4.90;99.90;;;;;;5111277;28;20209;-67
2021/04/04 00:21:39;;;;;;;5.40;4.90;;;4.80;99.90;;;;;;5111426;28;20233;-66
2021/04/04 00:24:06;;;;;;;11.20;3.80;;;4.80;99.90;;;;;;5111659;28;20247;-66
2021/04/04 00:26:32;;;;;;;8.63;4.00;;;4.80;99.90;;;;;;5128212;28;20273;-68
2021/04/04 00:28:57;;;;;;;6.17;3.90;;;4.80;99.90;;;;;;5130914;28;20413;-67
2021/04/04 00:31:23;;;;;;;4.10;3.70;;;4.70;99.90;;;;;;5128315;28;20214;-67
2021/04/04 00:33:48;;;;;;;4.83;4.37;;;4.70;99.90;;;;;;5111435;28;20182;-68
2021/04/04 00:36:14;;;;;;;6.67;3.87;;;4.70;99.90;;;;;;5111333;28;20175;-67
2021/04/04 00:38:40;;;;;;;6.23;4.03;;;4.70;99.90;;;;;;5111361;28;20630;-66
2021/04/04 00:41:05;;;;;;;4.63;3.20;;;4.70;99.90;;;;;;5110889;28;20211;-67
2021/04/04 00:43:31;;;;;;;8.77;4.50;;;4.80;99.90;;;;;;5111283;28;20199;-67
2021/04/04 00:45:57;;;;;;;11.13;4.70;;;4.80;99.90;;;;;;5111150;28;20183;-67
2021/04/04 00:48:22;;;;;;;7.47;4.80;;;4.70;99.90;;;;;;5111317;28;20248;-66
2021/04/04 00:50:48;;;;;;;8.93;4.67;;;4.60;99.90;;;;;;5111416;28;20191;-66
2021/04/04 00:53:14;;;;;;;6.17;4.97;;;4.60;99.90;;;;;;5111556;28;20203;-66
2021/04/04 00:55:39;;;;;;;4.10;3.70;;;4.50;99.90;;;;;;5111784;28;20532;-67
2021/04/04 00:58:05;;;;;;;4.73;3.60;;;4.40;99.90;;;;;;5111385;28;20300;-65
2021/04/04 01:00:32;;;;;;;4.93;4.00;;;4.40;99.90;;;;;;5110772;28;20490;-66
2021/04/04 01:02:58;;;;;;;9.87;6.30;;;4.40;99.90;;;;;;5111136;28;20170;-65
2021/04/04 01:05:30;;;;;;;10.00;7.20;;;4.40;99.90;;;;;;5111468;28;20413;-67
2021/04/04 01:07:57;;;;;;;7.17;5.57;;;4.40;99.90;;;;;;5111349;28;20160;-65
2021/04/04 01:10:27;;;;;;;9.00;5.97;;;4.40;99.90;;;;;;5110888;28;20626;-65
2021/04/04 01:12:58;;;;;;;4.37;3.97;;;4.40;99.90;;;;;;5111161;28;20492;-65
2021/04/04 01:15:37;;;;;;;8.57;4.73;;;4.40;99.90;;;;;;5111262;28;20425;-65
2021/04/04 01:18:08;;;;;;;7.37;6.60;;;4.40;99.90;;;;;;5111217;28;20504;-67
2021/04/04 01:20:48;;;;;;;9.30;6.87;;;4.40;99.90;;;;;;5110974;28;20464;-65
2021/04/04 01:23:25;;;;;;;5.60;4.33;;;4.40;99.90;;;;;;5110974;28;20493;-66
2021/04/04 01:26:03;;;;;;;10.97;4.67;;;4.30;99.90;;;;;;5110851;28;20524;-66
2021/04/04 01:28:34;;;;;;;6.60;3.73;;;4.30;99.90;;;;;;5111207;28;20415;-66
2021/04/04 01:31:00;;;;;;;5.50;4.73;;;4.30;99.90;;;;;;5111145;28;20753;-67
2021/04/04 01:33:29;;;;;;;8.30;4.37;;;4.30;99.90;;;;;;5111029;28;20413;-67
2021/04/04 01:35:57;;;;;;;6.13;5.00;;;4.30;99.90;;;;;;5110936;28;20934;-67
2021/04/04 01:38:26;;;;;;;9.67;5.17;;;4.20;99.90;;;;;;5110920;28;20424;-67
2021/04/04 01:41:06;;;;;;;6.20;3.97;;;4.10;99.90;;;;;;5110405;28;20496;-67
2021/04/04 01:43:32;;;;;;;11.67;5.83;;;4.10;99.90;;;;;;5110893;28;20775;-66
2021/04/04 01:45:59;;;;;;;7.17;4.67;;;4.00;99.90;;;;;;5110586;28;20461;-67
2021/04/04 01:48:26;;;;;;;5.83;4.10;;;4.00;99.90;;;;;;5112925;28;20420;-67
2021/04/04 01:50:52;;;;;;;7.10;4.50;;;3.90;99.90;;;;;;5114107;28;20608;-67
2021/04/04 01:53:18;;;;;;;5.67;4.07;;;3.90;99.90;;;;;;5114436;28;20405;-67
2021/04/04 01:55:47;;;;;;;5.43;4.43;;;3.90;99.90;;;;;;5114255;28;20778;-67
2021/04/04 01:58:13;;;;;;;6.30;4.43;;;3.80;99.90;;;;;;5114691;28;20472;-68
2021/04/04 02:00:39;;;;;;;9.43;6.33;;;3.80;99.90;;;;;;5114193;28;20432;-68
2021/04/04 02:03:07;;;;;;;9.17;5.13;;;3.70;99.90;;;;;;5114237;28;20405;-68
2021/04/04 02:05:33;;;;;;;6.70;5.03;;;3.80;99.90;;;;;;5114063;28;20436;-68
2021/04/04 02:08:00;;;;;;;6.47;4.60;;;3.80;99.90;;;;;;5114105;28;20418;-68
2021/04/04 02:10:28;;;;;;;4.60;3.90;;;3.80;99.90;;;;;;5113631;28;20818;-68
2021/04/04 02:12:57;;;;;;;8.30;3.43;;;3.80;99.90;;;;;;5113930;28;20542;-68
2021/04/04 02:15:26;;;;;;;6.73;3.73;;;3.80;99.90;;;;;;5113734;28;20485;-68
2021/04/04 02:17:53;;;;;;;8.20;4.90;;;3.80;99.90;;;;;;5113981;28;20413;-68
2021/04/04 02:20:21;;;;;;;5.80;3.43;;;3.80;99.90;;;;;;5113422;28;20853;-67
2021/04/04 02:22:48;;;;;;;5.03;3.50;;;3.80;99.90;;;;;;5113722;28;20423;-68
2021/04/04 02:25:15;;;;;;;4.03;3.37;;;3.70;99.90;;;;;;5113656;28;20417;-68
2021/04/04 02:27:42;;;;;;;5.70;3.90;;;3.60;99.90;;;;;;5113460;28;20417;-68
2021/04/04 02:30:09;;;;;;;3.87;3.23;;;3.60;99.90;;;;;;5113201;28;20709;-68
2021/04/04 02:32:39;;;;;;;11.10;6.20;;;3.50;99.90;;;;;;5113718;28;20441;-67
2021/04/04 02:35:07;;;;;;;5.30;3.13;;;3.50;99.90;;;;;;5113531;28;20445;-67
2021/04/04 02:37:35;;;;;;;6.90;3.87;;;3.50;99.90;;;;;;5113380;28;20921;-67
2021/04/04 02:40:04;;;;;;;7.20;3.30;;;3.50;99.90;;;;;;5113040;28;20441;-67
2021/04/04 02:42:32;;;;;;;7.73;3.43;;;3.50;99.90;;;;;;5113328;28;20786;-68
2021/04/04 02:44:59;;;;;;;6.20;4.00;;;3.50;99.90;;;;;;5113380;28;20861;-67
2021/04/04 02:47:44;;;;;;;5.10;3.13;;;3.50;99.90;;;;;;5113215;28;20456;-68
2021/04/04 02:50:11;;;;;;;12.80;4.27;;;3.40;99.90;;;;;;5113284;28;20481;-68
2021/04/04 02:52:39;;;;;;;5.60;3.50;;;3.40;99.90;;;;;;5113038;28;20409;-67
2021/04/04 02:55:08;;;;;;;3.57;2.90;;;3.40;99.90;;;;;;5113107;28;20449;-67
2021/04/04 02:57:34;;;;;;;5.10;3.70;;;3.40;99.90;;;;;;5113155;28;20726;-67
2021/04/04 03:00:05;;;;;;;4.83;3.57;;;3.40;99.90;;;;;;5111628;28;20464;-67
2021/04/04 03:02:32;;;;;;;8.13;4.63;;;3.40;99.90;;;;;;5113186;28;20804;-67
2021/04/04 03:05:00;;;;;;;5.63;3.50;;;3.30;99.90;;;;;;5113024;28;20418;-65
2021/04/04 03:07:27;;;;;;;11.00;3.33;;;3.20;99.90;;;;;;5112791;28;20807;-68
2021/04/04 03:09:54;;;;;;;6.07;3.30;;;3.20;99.90;;;;;;5112762;28;20822;-65
2021/04/04 03:12:22;;;;;;;4.33;2.93;;;3.20;99.90;;;;;;5113257;28;20445;-66
2021/04/04 03:14:50;;;;;;;5.17;3.40;;;3.30;99.90;;;;;;5111964;28;20417;-66
2021/04/04 03:17:16;;;;;;;5.80;3.70;;;3.20;99.90;;;;;;5111656;28;21011;-66
2021/04/04 03:19:44;;;;;;;5.40;3.30;;;3.20;99.90;;;;;;5112455;28;20429;-66
2021/04/04 03:22:11;;;;;;;9.73;3.30;;;3.20;99.90;;;;;;5112543;28;20433;-66
2021/04/04 03:24:39;;;;;;;5.50;3.50;;;3.20;99.90;;;;;;5112624;28;20417;-66
2021/04/04 03:27:06;;;;;;;4.40;3.27;;;3.10;99.90;;;;;;5112424;28;20432;-66
2021/04/04 03:29:33;;;;;;;9.10;3.93;;;3.00;99.90;;;;;;5112375;28;20871;-66
2021/04/04 03:32:00;;;;;;;6.97;3.00;;;3.00;99.90;;;;;;5112839;28;20413;-66
2021/04/04 03:34:26;;;;;;;6.77;3.37;;;3.10;99.90;;;;;;5112177;28;20421;-66
2021/04/04 03:36:52;;;;;;;3.63;3.33;;;3.10;99.90;;;;;;5112204;28;20413;-66
2021/04/04 03:39:20;;;;;;;6.87;3.43;;;3.10;99.90;;;;;;5112105;28;20810;-66
2021/04/04 03:41:48;;;;;;;6.23;3.80;;;3.10;99.90;;;;;;5112149;28;20414;-66
2021/04/04 03:44:23;;;;;;;7.27;3.43;;;3.10;99.90;;;;;;5112260;28;20413;-66
2021/04/04 03:46:50;;;;;;;5.00;3.57;;;3.10;99.90;;;;;;5111989;28;20432;-66
2021/04/04 03:49:18;;;;;;;5.10;3.13;;;3.10;99.90;;;;;;5111777;28;20433;-66
2021/04/04 03:51:45;;;;;;;5.23;3.23;;;3.10;99.90;;;;;;5111904;28;20453;-65
2021/04/04 03:54:12;;;;;;;4.80;3.43;;;3.00;99.90;;;;;;5112357;28;20779;-65
2021/04/04 03:56:41;;;;;;;4.13;3.20;;;3.10;99.90;;;;;;5112721;28;20401;-65
2021/04/04 03:59:10;;;;;;;5.77;3.40;;;3.10;99.90;;;;;;5111816;28;20409;-65
2021/04/04 04:01:39;;;;;;;4.13;3.57;;;3.00;99.90;;;;;;5112283;28;20865;-66
2021/04/04 04:04:09;;;;;;;11.70;2.90;;;3.00;99.90;;;;;;5111965;28;20507;-65
2021/04/04 04:06:35;;;;;;;4.37;3.97;;;3.00;99.90;;;;;;5110516;28;20414;-65
2021/04/04 04:09:05;;;;;;;5.40;2.93;;;3.00;99.90;;;;;;5111966;28;20840;-65
2021/04/04 04:11:31;;;;;;;4.37;3.17;;;2.90;99.90;;;;;;5111356;28;20449;-66
2021/04/04 04:13:59;;;;;;;5.30;3.23;;;3.00;99.90;;;;;;5111741;28;20830;-66
2021/04/04 04:16:25;;;;;;;9.13;3.90;;;2.90;99.90;;;;;;5111567;28;20477;-65
2021/04/04 04:18:51;;;;;;;8.60;3.80;;;2.90;99.90;;;;;;5111505;28;20418;-66
2021/04/04 04:21:17;;;;;;;6.17;3.90;;;2.80;99.90;;;;;;5111648;28;20479;-66
2021/04/04 04:23:43;;;;;;;4.70;3.50;;;2.80;99.90;;;;;;5111644;28;20508;-66
2021/04/04 04:26:12;;;;;;;5.03;3.83;;;2.80;99.90;;;;;;5111503;28;20425;-66
2021/04/04 04:28:40;;;;;;;6.27;3.73;;;2.80;99.90;;;;;;5111415;28;20500;-66
2021/04/04 04:31:09;;;;;;;6.47;3.27;;;2.80;99.90;;;;;;5111086;28;20457;-66
2021/04/04 04:33:35;;;;;;;5.53;3.70;;;2.70;99.90;;;;;;5111404;28;20409;-66
2021/04/04 04:36:02;;;;;;;4.37;3.20;;;2.60;99.90;;;;;;5111534;28;20814;-66
2021/04/04 04:38:29;;;;;;;8.57;4.70;;;2.60;99.90;;;;;;5111527;28;20424;-66
2021/04/04 04:40:56;;;;;;;6.90;3.43;;;2.50;99.90;;;;;;5111554;28;20437;-66
2021/04/04 04:43:22;;;;;;;6.97;4.03;;;2.60;99.90;;;;;;5111460;28;20918;-66
2021/04/04 04:45:51;;;;;;;7.70;4.20;;;2.60;99.90;;;;;;5111337;28;20483;-66
2021/04/04 04:48:16;;;;;;;13.70;4.00;;;2.60;99.90;;;;;;5111405;28;20428;-66
2021/04/04 04:50:43;;;;;;;7.03;4.40;;;2.70;99.90;;;;;;5110931;28;20453;-66
2021/04/04 04:53:08;;;;;;;5.57;4.17;;;2.70;99.90;;;;;;5111174;28;20199;-66
2021/04/04 04:55:36;;;;;;;5.40;4.37;;;2.70;99.90;;;;;;5110962;28;20447;-66
2021/04/04 04:58:03;;;;;;;7.53;4.13;;;2.70;99.90;;;;;;5111006;28;20834;-66
2021/04/04 05:00:30;;;;;;;6.50;3.50;;;2.60;99.90;;;;;;5110530;28;20441;-66
2021/04/04 05:02:56;;;;;;;10.53;3.50;;;2.60;99.90;;;;;;5110933;28;20835;-66
2021/04/04 05:05:22;;;;;;;4.90;3.63;;;2.50;99.90;;;;;;5110875;28;20425;-66
2021/04/04 05:07:48;;;;;;;8.23;4.27;;;2.50;99.90;;;;;;5110972;28;20176;-66
2021/04/04 05:10:14;;;;;;;4.77;3.30;;;2.50;99.90;;;;;;5110568;28;20460;-66
2021/04/04 05:12:49;;;;;;;7.50;3.70;;;2.50;99.90;;;;;;5110871;28;20405;-67
2021/04/04 05:15:17;;;;;;;7.13;4.33;;;2.50;99.90;;;;;;5110911;28;20428;-66
2021/04/04 05:17:43;;;;;;;5.63;3.83;;;2.60;99.90;;;;;;5110895;28;20413;-66
2021/04/04 05:20:09;;;;;;;9.13;4.20;;;2.70;99.90;;;;;;5110457;28;20491;-67
2021/04/04 05:22:36;;;;;;;4.17;3.77;;;2.70;99.90;;;;;;5111603;28;20417;-67
2021/04/04 05:25:03;;;;;;;6.63;4.33;;;2.80;99.90;;;;;;5115066;28;20421;-67
2021/04/04 05:27:28;;;;;;;8.13;4.80;;;2.90;99.90;;;;;;5114671;28;20519;-67
2021/04/04 05:29:59;;;;;;;5.27;3.50;;;2.90;99.90;;;;;;5114472;28;20972;-67
2021/04/04 05:32:24;;;;;;;9.50;4.60;;;3.00;99.90;;;;;;5114735;28;20172;-67
2021/04/04 05:34:50;;;;;;;6.33;3.77;;;3.20;99.90;;;;;;5114550;28;20428;-67
2021/04/04 05:37:15;;;;;;;9.03;4.00;;;3.30;99.90;;;;;;5114769;28;20172;-67
2021/04/04 05:39:41;;;;;;;4.63;3.60;;;3.50;99.90;;;;;;5114170;28;20187;-67
2021/04/04 05:42:08;;;;;;;6.10;3.77;;;3.60;99.90;;;;;;5114632;28;20178;-67
2021/04/04 05:45:01;;;;;;;6.13;4.43;;;3.70;99.90;;;;;;5114442;28;20199;-67
2021/04/04 05:47:30;;;;;;;5.80;3.93;;;3.80;99.90;;;;;;5111932;28;20440;-67
2021/04/04 05:50:17;;;;;;;6.20;4.10;;;3.80;99.90;;;;;;5114346;28;20854;-67
2021/04/04 05:53:04;;;;;;;6.63;4.17;;;3.80;99.90;;;;;;5114777;28;20445;-67
2021/04/04 05:55:44;;;;;;;4.53;3.50;;;4.10;99.90;;;;;;5114496;27;20402;-66
2021/04/04 05:58:21;;;;;;;5.03;4.10;;;4.20;99.90;;;;;;5114181;28;20409;-67
2021/04/04 06:00:52;;;;;;;5.63;4.17;;;4.40;99.90;;;;;;5113918;28;20435;-67
2021/04/04 06:03:36;;;;;;;8.67;4.23;;;4.60;99.90;;;;;;5114150;28;20449;-67
2021/04/04 06:06:42;;;;;;;4.90;4.07;;;4.70;99.90;;;;;;5112898;28;20424;-67
2021/04/04 06:09:44;;;;;;;6.50;4.87;;;4.80;99.90;;;;;;5078914;28;20535;-67
2021/04/04 06:12:28;;;;;;;6.77;4.20;;;5.00;99.90;;;;;;5114095;28;20505;-67
2021/04/04 06:15:16;;;;;;;9.43;4.33;;;5.10;99.90;;;;;;5113834;28;20413;-67
2021/04/04 06:17:46;;;;;;;6.60;5.30;;;5.30;99.90;;;;;;5113887;28;20413;-67
2021/04/04 06:20:40;;;;;;;6.80;5.53;;;5.40;99.90;;;;;;5113486;28;20421;-67
2021/04/04 06:23:08;;;;;;;7.93;5.20;;;5.70;99.90;;;;;;5113799;28;20782;-67
2021/04/04 06:25:58;;;;;;;11.67;4.47;;;5.90;99.90;;;;;;5113900;28;20599;-67
2021/04/04 06:28:40;;;;;;;7.40;6.07;;;6.00;99.90;;;;;;5113745;28;20405;-67
2021/04/04 06:31:29;;;;;;;6.00;4.60;;;6.10;99.90;;;;;;5113677;28;20453;-67
2021/04/04 06:34:18;;;;;;;8.83;5.10;;;6.30;99.90;;;;;;5111901;28;20420;-67
2021/04/04 06:36:50;;;;;;;7.73;5.07;;;6.60;99.90;;;;;;5113716;28;20413;-67
2021/04/04 06:39:48;;;;;;;6.73;5.70;;;6.80;99.90;;;;;;5111915;28;20438;-67
2021/04/04 06:42:32;;;;;;;6.67;4.40;;;7.10;99.90;;;;;;5113474;28;20506;-67
2021/04/04 06:45:25;;;;;;;6.73;3.70;;;7.50;99.90;;;;;;5113155;28;20429;-67
2021/04/04 06:48:11;;;;;;;7.90;4.40;;;7.80;99.90;;;;;;5113193;28;20425;-67
2021/04/04 06:50:43;;;;;;;12.03;5.10;;;8.10;99.10;;;;;;5112763;28;20471;-67
2021/04/04 06:53:17;;;;;;;9.00;7.50;;;8.20;98.20;;;;;;5113177;28;20782;-67
2021/04/04 06:55:59;;;;;;;5.37;4.87;;;8.40;98.40;;;;;;5113257;28;20409;-68
2021/04/04 06:58:57;;;;;;;5.43;4.67;;;8.60;97.30;;;;;;5113130;28;20398;-68
2021/04/04 07:01:59;;;;;;;7.60;4.47;;;9.00;96.40;;;;;;5113118;28;20868;-68
2021/04/04 07:04:39;;;;;;;6.77;4.40;;;9.20;95.30;;;;;;5113079;28;20452;-67
2021/04/04 07:07:26;;;;;;;5.50;4.47;;;9.20;94.70;;;;;;5113040;28;20421;-67
2021/04/04 07:10:30;;;;;;;6.17;4.50;;;9.40;93.90;;;;;;5112781;28;20482;-68
2021/04/04 07:13:19;;;;;;;7.57;5.03;;;9.50;93.80;;;;;;5049755;28;20419;-68
2021/04/04 07:15:48;;;;;;;7.53;5.00;;;9.80;93.70;;;;;;5109978;28;20444;-67
2021/04/04 07:18:35;;;;;;;14.40;5.97;;;10.20;92.00;;;;;;5112856;28;20409;-67
2021/04/04 07:21:55;;;;;;;10.30;5.20;;;10.30;90.70;;;;;;5112321;28;20429;-68
2021/04/04 07:24:53;;;;;;;8.47;5.97;;;10.30;91.10;;;;;;5049476;28;20491;-67
2021/04/04 07:27:36;;;;;;;8.30;4.40;;;10.40;90.20;;;;;;5112535;28;20417;-67
2021/04/04 07:30:35;;;;;;;6.93;5.10;;;10.40;90.20;;;;;;5112012;28;20544;-67
2021/04/04 07:33:03;;;;;;;7.90;5.00;;;10.50;88.90;;;;;;5112499;28;20417;-68
2021/04/04 07:35:43;;;;;;;11.13;5.50;;;10.90;88.80;;;;;;5112213;28;20527;-68
2021/04/04 07:38:17;;;;;;;8.43;5.90;;;11.20;86.40;;;;;;5112115;28;20903;-68
2021/04/04 07:40:52;;;;;;;7.80;5.70;;;11.30;84.40;;;;;;5112146;28;20448;-67
2021/04/04 07:43:32;;;;;;;7.57;4.97;;;11.30;84.30;;;;;;5112327;28;20444;-68
2021/04/04 07:46:16;;;;;;;6.07;5.50;;;11.50;84.20;;;;;;5111408;28;20436;-67
2021/04/04 07:48:59;;;;;;;9.20;5.50;;;11.80;81.60;;;;;;5110687;28;20872;-67
2021/04/04 07:51:31;;;;;;;6.37;5.50;;;12.20;81.60;;;;;;5111909;28;20542;-67
2021/04/04 07:54:06;;;;;;;9.43;6.03;;;12.60;79.50;;;;;;5111922;28;20413;-68
2021/04/04 07:56:44;;;;;;;9.30;5.20;;;12.80;76.70;;;;;;5111972;28;20414;-68
2021/04/04 07:59:24;;;;;;;7.90;5.80;;;13.00;75.60;;;;;;5112556;28;20432;-67
2021/04/04 08:02:08;;;;;;;9.40;6.90;;;13.20;73.60;;;;;;5112362;28;20444;-67
2021/04/04 08:04:50;;;;;;;7.73;5.83;;;13.50;73.50;;;;;;5112310;28;20409;-67
2021/04/04 08:07:43;;;;;;;9.07;6.40;;;13.80;71.30;;;;;;5112489;28;20406;-66
2021/04/04 08:10:11;;;;;;;10.13;5.83;;;13.90;70.50;;;;;;5111809;28;20457;-67
2021/04/04 08:13:14;;;;;;;8.53;5.83;;;13.90;68.90;;;;;;5111925;28;20423;-67
2021/04/04 08:16:07;;;;;;;11.87;6.13;;;14.20;68.00;;;;;;5111982;28;20404;-67
2021/04/04 08:18:33;;;;;;;9.67;7.33;;;14.40;67.00;;;;;;5112146;28;20493;-66
2021/04/04 08:21:04;;;;;;;11.23;6.33;;;13.60;66.70;;;;;;5111564;28;20429;-67
2021/04/04 08:23:41;;;;;;;6.33;5.67;;;13.60;68.70;;;;;;5111821;28;20413;-67
2021/04/04 08:26:13;;;;;;;11.60;5.63;;;13.90;67.40;;;;;;5111365;28;20413;-66
2021/04/04 08:28:52;;;;;;;6.93;5.37;;;14.10;66.90;;;;;;5111731;28;20479;-67
2021/04/04 08:31:25;;;;;;;9.93;6.80;;;14.20;66.00;;;;;;5111096;28;20461;-67
2021/04/04 08:34:11;;;;;;;9.70;5.87;;;14.80;64.40;;;;;;5111643;28;20415;-67
2021/04/04 08:36:41;;;;;;;6.47;5.70;;;14.90;64.10;;;;;;5112033;28;20482;-67
2021/04/04 08:39:09;;;;;;;8.00;6.60;;;15.70;61.90;;;;;;5113004;28;20431;-66
2021/04/04 08:41:36;;;;;;;8.80;6.60;;;16.00;60.10;;;;;;5112790;28;20436;-67
2021/04/04 08:44:10;;;;;;;9.10;6.40;;;16.00;58.90;;;;;;5113277;28;20425;-66
2021/04/04 08:46:58;;;;;;;7.67;6.20;;;16.00;58.80;;;;;;5113229;28;20465;-66
2021/04/04 08:49:24;;;;;;;6.07;5.50;;;16.00;59.20;;;;;;5112729;28;20432;-67
2021/04/04 08:52:01;;;;;;;7.43;5.37;;;16.10;57.70;;;;;;5112541;28;20683;-67
2021/04/04 08:54:28;;;;;;;9.70;6.97;;;16.40;56.10;;;;;;5112770;28;20511;-67
2021/04/04 08:56:56;;;;;;;11.40;7.00;;;16.20;55.90;;;;;;5112776;28;20405;-67
2021/04/04 08:59:25;;;;;;;7.00;6.27;;;16.50;56.20;;;;;;5115971;28;20474;-67
2021/04/04 09:02:12;;;;;;;7.63;6.93;;;17.00;55.70;;;;;;5116643;28;20417;-67
2021/04/04 09:04:40;;;;;;;4.83;4.40;;;17.50;53.60;;;;;;5116385;28;20416;-67
2021/04/04 09:07:07;;;;;;;4.10;3.70;;;17.80;50.20;;;;;;5116004;28;20496;-67
2021/04/04 09:09:40;;;;;;;5.57;4.57;;;18.30;47.50;;;;;;5115658;28;20441;-66
2021/04/04 09:12:07;;;;;;;4.90;4.47;;;18.80;47.20;;;;;;5116658;28;20548;-67
2021/04/04 09:14:44;;;;;;;7.30;5.50;;;18.50;47.90;;;;;;5116595;28;20412;-66
2021/04/04 09:17:16;;;;;;;4.70;3.73;;;17.60;46.60;;;;;;5116776;28;20411;-67
2021/04/04 09:19:46;;;;;;;3.60;3.30;;;16.60;47.00;;;;;;5116416;28;20435;-67
2021/04/04 09:22:20;;;;;;;4.83;4.17;;;15.70;48.30;;;;;;5116798;28;20405;-67
2021/04/04 09:24:56;;;;;;;6.70;4.67;;;14.80;50.50;;;;;;5116392;28;20462;-66
2021/04/04 09:27:25;;;;;;;5.10;4.60;;;14.40;51.80;;;;;;5115326;28;20411;-67
2021/04/04 09:29:54;;;;;;;5.83;4.30;;;14.40;52.20;;;;;;5114615;28;20425;-67
2021/04/04 09:32:28;;;;;;;6.73;5.27;;;16.00;50.20;;;;;;5114802;28;20417;-67
2021/04/04 09:34:55;;;;;;;5.80;4.60;;;17.40;48.20;;;;;;5114603;28;20503;-67
2021/04/04 09:37:26;;;;;;;5.10;3.97;;;18.10;46.30;;;;;;5113712;28;20428;-68
2021/04/04 09:39:52;;;;;;;5.57;4.60;;;18.50;45.90;;;;;;5114433;28;20459;-68
2021/04/04 09:42:18;;;;;;;5.10;4.70;;;19.90;43.90;;;;;;5114639;28;20507;-67
2021/04/04 09:44:45;;;;;;;4.73;4.30;;;20.10;41.70;;;;;;5114531;28;20870;-68
2021/04/04 09:47:11;;;;;;;5.30;4.90;;;19.70;42.20;;;;;;5115239;28;20248;-67
2021/04/04 09:49:45;;;;;;;5.30;4.87;;;20.60;41.70;;;;;;5114161;28;20516;-67
2021/04/04 09:52:24;;;;;;;4.70;4.30;;;21.50;40.00;;;;;;5114493;28;20178;-67
2021/04/04 09:55:00;;;;;;;7.50;4.93;;;21.90;37.90;;;;;;5114507;28;20789;-68
2021/04/04 09:57:27;;;;;;;10.67;6.10;;;21.20;37.30;;;;;;5114390;27;20449;-68
2021/04/04 09:59:53;;;;;;;4.83;4.30;;;21.70;37.40;;;;;;5113816;28;20441;-68
2021/04/04 10:02:32;;;;;;;4.90;3.40;;;21.80;36.10;;;;;;5114318;28;20504;-68
2021/04/04 10:04:58;;;;;;;4.33;4.03;;;22.90;35.20;;;;;;5114247;28;20941;-68
2021/04/04 10:07:31;;;;;;;3.90;3.60;;;24.80;33.10;;;;;;5114181;28;20423;-66
2021/04/04 10:10:00;;;;;;;3.53;3.20;;;25.80;30.70;;;;;;5112151;28;20210;-66
2021/04/04 10:12:27;;;;;;;4.57;4.20;;;26.00;29.60;;;;;;5114219;28;20998;-67
2021/04/04 10:15:04;;;;;;;5.23;4.10;;;27.00;29.00;;;;;;5113973;28;20441;-65
2021/04/04 10:17:30;;;;;;;5.07;3.93;;;27.50;28.80;;;;;;5114167;28;20515;-66
2021/04/04 10:19:57;;;;;;;4.43;4.03;;;27.90;28.20;;;;;;5113649;28;20520;-66
2021/04/04 10:22:23;;;;;;;6.20;3.63;;;26.80;28.80;;;;;;5114049;28;20167;-65
2021/04/04 10:24:49;;;;;;;5.33;3.50;;;27.10;28.70;;;;;;5113359;28;20500;-66
2021/04/04 10:27:29;;;;;;;4.40;4.00;;;28.60;27.70;;;;;;5114100;28;20496;-66
2021/04/04 10:30:15;;;;;;;3.70;3.17;;;29.20;26.50;;;;;;5113640;28;20498;-68
2021/04/04 10:32:49;;;;;;;3.10;2.90;;;28.20;26.40;;;;;;5113974;28;20971;-67
2021/04/04 10:35:34;;;;;;;3.83;3.20;;;27.90;26.70;;;;;;5113626;28;20442;-67
2021/04/04 10:38:06;;;;;;;3.40;3.13;;;28.70;25.60;;;;;;5113836;28;20784;-66
2021/04/04 10:40:42;;;;;;;3.23;2.70;;;28.40;25.30;;;;;;5113213;28;20460;-66
2021/04/04 10:43:08;;;;;;;5.20;4.00;;;27.20;25.30;;;;;;5113750;28;20461;-66
2021/04/04 10:45:34;;;;;;;3.73;3.40;;;26.50;25.50;;;;;;5113476;28;20452;-66
2021/04/04 10:48:08;;;;;;;5.47;4.60;;;26.10;26.90;;;;;;5113532;28;20178;-66
2021/04/04 10:50:34;;;;;;;4.63;4.20;;;25.90;26.80;;;;;;5113276;28;20566;-66
2021/04/04 10:53:01;;;;;;;4.30;4.00;;;25.80;27.60;;;;;;5113680;28;20819;-66
2021/04/04 10:55:26;;;;;;;4.27;3.97;;;25.60;26.60;;;;;;5113374;28;20452;-65
2021/04/04 10:57:54;;;;;;;4.87;4.13;;;26.50;27.40;;;;;;5113302;28;20456;-65
2021/04/04 11:00:21;;;;;;;4.30;3.90;;;26.50;26.00;;;;;;5112577;28;20759;-65
2021/04/04 11:02:47;;;;;;;5.07;4.40;;;26.40;26.10;;;;;;5112892;28;20428;-65
2021/04/04 11:05:13;;;;;;;4.03;3.63;;;27.50;26.10;;;;;;5112824;28;20421;-65
2021/04/04 11:07:40;;;;;;;3.63;3.33;;;27.90;25.30;;;;;;5113446;28;20421;-65
2021/04/04 11:10:08;;;;;;;5.03;3.80;;;27.80;25.30;;;;;;5112953;28;20523;-65
2021/04/04 11:12:37;;;;;;;4.17;3.77;;;26.70;25.50;;;;;;5113135;28;20463;-65
2021/04/04 11:15:05;;;;;;;5.33;4.77;;;27.00;26.50;;;;;;5113086;28;20409;-65
2021/04/04 11:17:34;;;;;;;4.70;4.30;;;27.50;25.90;;;;;;5113109;28;20417;-65
2021/04/04 11:20:05;;;;;;;6.13;5.53;;;28.00;25.70;;;;;;5111842;28;20510;-65
2021/04/04 11:22:33;;;;;;;4.83;4.23;;;26.80;26.10;;;;;;5113013;28;20424;-66
2021/04/04 11:25:09;;;;;;;6.80;5.07;;;25.90;26.00;;;;;;5112730;28;20425;-65
2021/04/04 11:27:50;;;;;;;5.60;5.10;;;26.40;26.30;;;;;;5112707;28;20906;-65
2021/04/04 11:30:37;;;;;;;3.90;3.60;;;26.80;26.30;;;;;;5112363;28;20437;-65
2021/04/04 11:33:19;;;;;;;4.20;3.37;;;27.60;26.00;;;;;;5112779;28;20421;-66
2021/04/04 11:36:03;;;;;;;3.67;3.40;;;28.00;24.90;;;;;;5112342;28;20421;-66
2021/04/04 11:38:31;;;;;;;4.10;3.80;;;27.80;25.50;;;;;;5112521;28;20466;-66
2021/04/04 11:41:22;;;;;;;6.10;4.23;;;28.10;25.30;;;;;;5111916;28;20526;-65
2021/04/04 11:43:50;;;;;;;5.00;4.50;;;29.70;25.50;;;;;;5112220;28;20421;-66
2021/04/04 11:46:41;;;;;;;4.50;4.10;;;29.90;26.10;;;;;;5112085;28;20447;-65
2021/04/04 11:49:29;;;;;;;4.30;3.90;;;31.00;24.50;;;;;;5111770;28;20940;-65
2021/04/04 11:51:56;;;;;;;4.60;4.20;;;30.50;24.50;;;;;;5102161;28;20422;-66
2021/04/04 11:54:55;;;;;;;5.80;5.30;;;30.70;24.80;;;;;;5112005;28;20491;-65
2021/04/04 11:57:26;;;;;;;4.43;4.03;;;31.70;24.40;;;;;;5078167;28;20425;-65
2021/04/04 11:59:51;;;;;;;4.87;4.47;;;33.10;23.70;;;;;;5111618;28;20516;-65
2021/04/04 12:02:21;;;;;;;6.50;4.50;;;31.10;23.80;;;;;;5112009;28;20907;-65
2021/04/04 12:05:06;;;;;;;5.20;4.77;;;30.60;24.20;;;;;;5111844;28;20159;-65
2021/04/04 12:07:33;;;;;;;5.43;4.67;;;31.20;23.70;;;;;;5111857;28;20512;-65
2021/04/04 12:10:00;;;;;;;5.10;4.43;;;30.70;23.40;;;;;;5111466;28;20436;-66
2021/04/04 12:12:34;;;;;;;5.03;4.73;;;30.90;24.10;;;;;;5111692;28;20473;-65
2021/04/04 12:15:00;;;;;;;4.93;4.53;;;29.30;24.10;;;;;;5111656;28;20416;-65
2021/04/04 12:17:28;;;;;;;5.40;4.90;;;29.10;24.90;;;;;;5111550;28;20973;-65
2021/04/04 12:19:54;;;;;;;8.30;4.80;;;27.90;25.50;;;;;;5111248;28;20795;-65
2021/04/04 12:22:31;;;;;;;6.73;4.57;;;26.40;26.20;;;;;;5111433;28;20440;-67
2021/04/04 12:24:57;;;;;;;6.80;6.10;;;26.40;26.30;;;;;;5111086;28;20233;-68
2021/04/04 12:27:24;;;;;;;6.13;4.70;;;27.20;25.80;;;;;;5111486;28;20437;-67
2021/04/04 12:29:52;;;;;;;5.07;4.70;;;28.90;25.70;;;;;;5111126;28;20264;-68
2021/04/04 12:32:30;;;;;;;5.00;4.50;;;29.90;25.20;;;;;;5111132;28;20425;-66
2021/04/04 12:35:01;;;;;;;5.80;5.30;;;29.90;25.30;;;;;;5111505;28;20409;-66
2021/04/04 12:37:29;;;;;;;5.13;4.67;;;31.40;25.10;;;;;;5111657;28;20413;-65
2021/04/04 12:39:57;;;;;;;7.73;5.57;;;31.50;24.30;;;;;;5109804;28;20449;-66
2021/04/04 12:42:27;;;;;;;5.50;5.00;;;33.30;33.90;;;;;;5111346;28;20662;-66
2021/04/04 12:44:54;;;;;;;7.00;5.47;;;32.30;32.50;;;;;;5111567;28;20743;-65
2021/04/04 12:47:22;;;;;;;4.90;4.47;;;31.50;33.60;;;;;;5111381;28;20500;-65
2021/04/04 12:50:14;;;;;;;4.87;4.47;;;32.00;33.50;;;;;;5111180;28;20950;-65
2021/04/04 12:52:43;;;;;;;5.10;4.70;;;31.00;32.80;;;;;;5111185;28;20512;-68
2021/04/04 12:55:24;;;;;;;5.83;5.30;;;28.70;32.80;;;;;;5111484;28;20419;-67
2021/04/04 12:57:53;;;;;;;5.17;4.47;;;30.40;33.00;;;;;;5111348;28;20441;-67
2021/04/04 13:00:23;;;;;;;5.80;5.30;;;32.10;32.40;;;;;;5110750;28;20453;-65
2021/04/04 13:03:09;;;;;;;5.50;5.10;;;32.50;31.90;;;;;;5110998;28;20754;-65
2021/04/04 13:05:37;;;;;;;5.77;4.50;;;30.80;31.70;;;;;;5111187;28;20654;-65
2021/04/04 13:08:19;;;;;;;5.20;4.80;;;29.30;31.40;;;;;;5111353;28;20755;-65
2021/04/04 13:10:49;;;;;;;5.10;4.57;;;27.70;31.90;;;;;;5111068;28;20437;-66
2021/04/04 13:13:20;;;;;;;5.67;5.17;;;29.10;31.70;;;;;;5109939;28;20421;-65
2021/04/04 13:15:47;;;;;;;4.73;4.23;;;29.50;30.90;;;;;;5110965;28;20409;-65
2021/04/04 13:18:24;;;;;;;5.60;4.67;;;28.60;31.00;;;;;;5111348;28;20410;-67
2021/04/04 13:20:52;;;;;;;4.53;4.03;;;28.50;31.70;;;;;;5110522;28;20463;-66